createdAt,value
2022-10-23T00:01:20.100Z,12.67
2022-10-23T00:03:47.769Z,12.67
2022-10-23T00:06:14.633Z,12.64
2022-10-23T00:08:43.431Z,12.63
2022-10-23T00:11:12.742Z,12.57
2022-10-23T00:13:40.341Z,12.55
2022-10-23T00:16:07.643Z,12.48
2022-10-23T00:18:34.436Z,12.53
2022-10-23T00:21:01.914Z,12.50
2022-10-23T00:23:28.390Z,12.46
2022-10-23T00:25:55.018Z,12.41
2022-10-23T00:28:21.493Z,12.39
2022-10-23T00:30:48.242Z,12.42
2022-10-23T00:33:14.728Z,12.40
2022-10-23T00:35:42.330Z,12.45
2022-10-23T00:38:09.765Z,12.52
2022-10-23T00:40:37.541Z,12.50
2022-10-23T00:43:04.074Z,12.48
2022-10-23T00:45:33.488Z,12.46
2022-10-23T00:48:03.995Z,12.48
2022-10-23T00:50:33.214Z,12.48
2022-10-23T00:53:03.323Z,12.52
2022-10-23T00:55:32.190Z,12.44
2022-10-23T00:57:59.171Z,12.43
2022-10-23T01:00:51.753Z,12.41
2022-10-23T01:03:20.115Z,12.45
2022-10-23T01:05:54.956Z,12.32
2022-10-23T01:08:35.184Z,12.38
2022-10-23T01:11:19.659Z,12.31
2022-10-23T01:14:00.610Z,12.31
2022-10-23T01:16:34.570Z,12.27
2022-10-23T01:19:20.151Z,12.26
2022-10-23T01:22:04.131Z,12.20
2022-10-23T01:24:56.705Z,12.13
2022-10-23T01:27:27.039Z,12.05
2022-10-23T01:30:11.931Z,12.03
2022-10-23T01:32:44.974Z,12.00
2022-10-23T01:35:16.450Z,12.12
2022-10-23T01:37:47.825Z,12.06
2022-10-23T01:40:24.356Z,11.98
2022-10-23T01:42:56.690Z,11.82
2022-10-23T01:45:40.055Z,11.74
2022-10-23T01:48:11.751Z,11.61
2022-10-23T01:50:40.356Z,11.55
2022-10-23T01:53:07.245Z,11.52
2022-10-23T01:55:34.360Z,11.54
2022-10-23T01:58:03.468Z,11.43
2022-10-23T02:00:30.916Z,11.40
2022-10-23T02:02:58.792Z,11.36
2022-10-23T02:05:27.544Z,11.28
2022-10-23T02:07:54.724Z,11.24
2022-10-23T02:10:23.106Z,11.21
2022-10-23T02:13:08.121Z,11.25
2022-10-23T02:15:40.634Z,11.30
2022-10-23T02:18:25.756Z,11.29
2022-10-23T02:21:02.520Z,11.39
2022-10-23T02:24:15.255Z,11.35
2022-10-23T02:26:50.829Z,11.33
2022-10-23T02:29:30.237Z,11.33
2022-10-23T02:31:56.797Z,11.30
2022-10-23T02:34:23.369Z,11.26
2022-10-23T02:36:49.967Z,11.23
2022-10-23T02:39:16.584Z,11.30
2022-10-23T02:42:20.324Z,11.29
2022-10-23T02:45:12.172Z,11.28
2022-10-23T02:48:12.246Z,11.24
2022-10-23T02:50:53.861Z,11.21
2022-10-23T02:53:59.154Z,11.23
2022-10-23T02:56:50.037Z,11.18
2022-10-23T02:59:27.710Z,11.15
2022-10-23T03:02:08.431Z,11.19
2022-10-23T03:04:36.648Z,11.12
2022-10-23T03:07:03.310Z,11.14
2022-10-23T03:09:30.980Z,11.10
2022-10-23T03:11:57.468Z,11.27
2022-10-23T03:14:23.896Z,11.39
2022-10-23T03:16:50.338Z,11.45
2022-10-23T03:19:16.721Z,11.36
2022-10-23T03:21:43.429Z,11.27
2022-10-23T03:24:09.872Z,11.18
2022-10-23T03:26:36.594Z,11.17
2022-10-23T03:29:03.014Z,11.06
2022-10-23T03:31:29.660Z,11.01
2022-10-23T03:33:56.085Z,11.00
2022-10-23T03:36:25.046Z,10.96
2022-10-23T03:38:51.859Z,11.00
2022-10-23T03:41:18.490Z,10.99
2022-10-23T03:43:44.965Z,10.99
2022-10-23T03:46:12.945Z,11.13
2022-10-23T03:48:39.588Z,11.23
2022-10-23T03:51:07.916Z,11.18
2022-10-23T03:53:34.740Z,11.31
2022-10-23T03:56:01.416Z,11.40
2022-10-23T03:58:27.870Z,11.62
2022-10-23T04:00:54.467Z,11.85
2022-10-23T04:03:20.873Z,11.99
2022-10-23T04:05:50.003Z,12.04
2022-10-23T04:08:20.054Z,12.09
2022-10-23T04:10:47.005Z,12.14
2022-10-23T04:13:13.458Z,12.11
2022-10-23T04:15:40.108Z,12.19
2022-10-23T04:18:06.896Z,12.23
2022-10-23T04:20:33.325Z,12.27
2022-10-23T04:22:59.865Z,12.32
2022-10-23T04:25:26.391Z,12.37
2022-10-23T04:27:52.934Z,12.38
2022-10-23T04:30:19.378Z,12.40
2022-10-23T04:32:45.882Z,12.36
2022-10-23T04:35:12.365Z,12.34
2022-10-23T04:37:38.929Z,12.34
2022-10-23T04:40:05.853Z,12.38
2022-10-23T04:42:32.334Z,12.31
2022-10-23T04:44:58.806Z,12.37
2022-10-23T04:47:25.394Z,12.29
2022-10-23T04:49:51.819Z,12.26
2022-10-23T04:52:18.382Z,12.24
2022-10-23T04:54:44.822Z,12.19
2022-10-23T04:57:11.421Z,12.22
2022-10-23T04:59:37.866Z,12.30
2022-10-23T05:02:04.659Z,12.27
2022-10-23T05:04:31.359Z,12.27
2022-10-23T05:06:57.941Z,12.26
2022-10-23T05:09:24.415Z,12.28
2022-10-23T05:11:50.993Z,12.24
2022-10-23T05:14:21.939Z,12.18
2022-10-23T05:17:12.864Z,12.18
2022-10-23T05:19:45.881Z,12.12
2022-10-23T05:22:13.370Z,12.10
2022-10-23T05:24:40.340Z,12.15
2022-10-23T05:27:06.761Z,12.18
2022-10-23T05:29:33.279Z,12.16
2022-10-23T05:32:04.465Z,12.23
2022-10-23T05:34:35.020Z,12.21
2022-10-23T05:37:03.375Z,12.24
2022-10-23T05:39:30.397Z,12.24
2022-10-23T05:41:56.998Z,12.19
2022-10-23T05:44:23.728Z,12.21
2022-10-23T05:46:50.474Z,12.17
2022-10-23T05:49:17.024Z,12.16
2022-10-23T05:51:43.549Z,12.15
2022-10-23T05:54:10.214Z,12.06
2022-10-23T05:56:41.479Z,12.03
2022-10-23T05:59:08.417Z,12.05
2022-10-23T06:01:34.977Z,12.10
2022-10-23T06:04:01.647Z,12.06
2022-10-23T06:06:28.262Z,12.04
2022-10-23T06:08:55.024Z,12.17
2022-10-23T06:11:21.825Z,12.17
2022-10-23T06:13:48.549Z,12.16
2022-10-23T06:16:21.141Z,12.13
2022-10-23T06:18:48.381Z,12.13
2022-10-23T06:21:15.819Z,12.20
2022-10-23T06:23:43.365Z,12.20
2022-10-23T06:26:13.465Z,12.23
2022-10-23T06:28:40.783Z,12.34
2022-10-23T06:31:09.578Z,12.28
2022-10-23T06:33:36.759Z,12.26
2022-10-23T06:36:05.416Z,12.31
2022-10-23T06:38:37.251Z,12.31
2022-10-23T06:41:04.847Z,12.26
2022-10-23T06:43:31.670Z,12.30
2022-10-23T06:46:02.021Z,12.30
2022-10-23T06:48:28.446Z,12.34
2022-10-23T06:50:55.764Z,12.37
2022-10-23T06:53:24.773Z,12.36
2022-10-23T06:55:55.312Z,12.40
2022-10-23T06:58:22.245Z,12.43
2022-10-23T07:00:49.397Z,12.46
2022-10-23T07:03:16.264Z,12.45
2022-10-23T07:05:44.874Z,12.57
2022-10-23T07:08:11.392Z,12.48
2022-10-23T07:10:42.665Z,12.57
2022-10-23T07:13:09.984Z,12.62
2022-10-23T07:15:37.679Z,12.65
2022-10-23T07:18:05.029Z,12.71
2022-10-23T07:20:31.668Z,12.72
2022-10-23T07:22:58.404Z,12.80
2022-10-23T07:25:26.320Z,12.82
2022-10-23T07:27:55.349Z,12.86
2022-10-23T07:30:22.096Z,12.85
2022-10-23T07:32:48.726Z,12.92
2022-10-23T07:37:46.902Z,12.91
2022-10-23T07:40:14.580Z,12.94
2022-10-23T07:42:41.385Z,12.98
2022-10-23T07:45:08.687Z,13.04
2022-10-23T07:47:35.225Z,13.11
2022-10-23T07:50:01.838Z,13.13
2022-10-23T07:52:32.005Z,13.22
2022-10-23T07:55:01.748Z,13.24
2022-10-23T07:57:28.369Z,13.33
2022-10-23T07:59:54.899Z,13.40
2022-10-23T08:02:21.530Z,13.41
2022-10-23T08:04:51.298Z,13.51
2022-10-23T08:07:17.963Z,13.63
2022-10-23T08:09:44.437Z,13.73
2022-10-23T08:12:11.999Z,13.82
2022-10-23T08:14:38.548Z,13.83
2022-10-23T08:17:05.456Z,13.93
2022-10-23T08:19:32.250Z,13.88
2022-10-23T08:21:58.683Z,13.94
2022-10-23T08:24:26.252Z,14.05
2022-10-23T08:26:52.766Z,14.12
2022-10-23T08:29:19.414Z,14.18
2022-10-23T08:31:45.895Z,14.25
2022-10-23T08:34:13.280Z,14.33
2022-10-23T08:36:39.677Z,14.26
2022-10-23T08:39:06.790Z,14.32
2022-10-23T08:41:47.845Z,14.42
2022-10-23T08:44:23.487Z,14.55
2022-10-23T08:47:06.689Z,14.67
2022-10-23T08:50:03.230Z,14.78
2022-10-23T08:52:45.661Z,14.90
2022-10-23T08:55:23.461Z,14.97
2022-10-23T08:57:58.607Z,15.12
2022-10-23T09:00:24.926Z,15.16
2022-10-23T09:02:53.756Z,15.15
2022-10-23T09:05:31.939Z,15.17
2022-10-23T09:08:28.138Z,15.13
2022-10-23T09:11:27.799Z,15.13
2022-10-23T09:14:12.584Z,15.10
2022-10-23T09:16:49.270Z,15.13
2022-10-23T09:19:26.270Z,15.12
2022-10-23T09:21:54.288Z,15.09
2022-10-23T09:24:24.656Z,15.15
2022-10-23T09:26:53.028Z,15.12
2022-10-23T09:29:35.919Z,15.20
2022-10-23T09:32:05.651Z,15.20
2022-10-23T09:34:33.825Z,15.18
2022-10-23T09:37:02.884Z,15.24
2022-10-23T09:39:36.764Z,15.28
2022-10-23T09:42:24.729Z,15.42
2022-10-23T09:44:54.005Z,15.46
2022-10-23T09:47:23.942Z,15.60
2022-10-23T09:49:52.962Z,15.79
2022-10-23T09:52:24.602Z,15.85
2022-10-23T09:54:54.572Z,15.92
2022-10-23T09:57:40.645Z,15.96
2022-10-23T10:00:25.424Z,16.02
2022-10-23T10:03:07.019Z,16.07
2022-10-23T10:05:38.623Z,16.08
2022-10-23T10:08:21.576Z,16.18
2022-10-23T10:10:52.356Z,16.17
2022-10-23T10:13:45.142Z,16.07
2022-10-23T10:16:29.944Z,16.03
2022-10-23T10:19:08.512Z,15.99
2022-10-23T10:21:47.714Z,16.01
2022-10-23T10:24:39.062Z,16.02
2022-10-23T10:27:31.529Z,15.94
2022-10-23T10:30:18.946Z,16.03
2022-10-23T10:33:09.244Z,16.11
2022-10-23T10:36:03.867Z,16.04
2022-10-23T10:38:30.252Z,16.00
2022-10-23T10:41:05.669Z,16.01
2022-10-23T10:43:49.208Z,15.92
2022-10-23T10:46:41.586Z,16.02
2022-10-23T10:49:18.065Z,15.94
2022-10-23T10:51:48.053Z,15.86
2022-10-23T10:54:37.697Z,15.86
2022-10-23T10:57:16.897Z,15.68
2022-10-23T10:59:46.065Z,15.70
2022-10-23T11:02:34.014Z,15.60
2022-10-23T11:05:12.922Z,15.59
2022-10-23T11:08:11.494Z,15.48
2022-10-23T11:10:43.328Z,15.48
2022-10-23T11:13:33.915Z,15.42
2022-10-23T11:16:09.587Z,15.37
2022-10-23T11:18:37.617Z,15.31
2022-10-23T11:21:35.071Z,15.21
2022-10-23T11:24:16.059Z,15.20
2022-10-23T11:26:51.941Z,15.25
2022-10-23T11:29:36.743Z,15.29
2022-10-23T11:32:21.978Z,15.27
2022-10-23T11:35:03.867Z,15.39
2022-10-23T11:37:30.607Z,15.38
2022-10-23T11:40:09.155Z,15.47
2022-10-23T11:42:38.684Z,15.51
2022-10-23T11:45:35.736Z,15.55
2022-10-23T11:48:03.850Z,15.62
2022-10-23T11:50:59.103Z,15.77
2022-10-23T11:53:31.096Z,15.86
2022-10-23T11:56:02.938Z,15.93
2022-10-23T11:58:46.923Z,15.96
2022-10-23T12:01:19.516Z,15.99
2022-10-23T12:04:00.485Z,16.16
2022-10-23T12:06:31.840Z,16.21
2022-10-23T12:09:37.375Z,16.26
2022-10-23T12:12:10.938Z,16.33
2022-10-23T12:14:38.832Z,16.43
2022-10-23T12:17:23.481Z,16.49
2022-10-23T12:20:03.062Z,16.55
2022-10-23T12:22:42.395Z,16.57
2022-10-23T12:25:15.737Z,16.68
2022-10-23T12:27:52.864Z,16.83
2022-10-23T12:30:28.487Z,16.91
2022-10-23T12:33:24.565Z,17.01
2022-10-23T12:36:07.745Z,17.06
2022-10-23T12:38:43.747Z,17.05
2022-10-23T12:41:28.616Z,16.93
2022-10-23T12:44:01.004Z,16.98
2022-10-23T12:46:30.282Z,17.01
2022-10-23T12:48:58.446Z,16.98
2022-10-23T12:51:33.099Z,17.06
2022-10-23T12:54:00.736Z,17.07
2022-10-23T12:56:37.497Z,17.17
2022-10-23T12:59:05.376Z,17.21
2022-10-23T13:01:34.794Z,17.28
2022-10-23T13:04:13.037Z,17.32
2022-10-23T13:06:40.479Z,17.38
2022-10-23T13:09:20.592Z,17.43
2022-10-23T13:11:47.473Z,17.43
2022-10-23T13:14:14.371Z,17.33
2022-10-23T13:16:40.808Z,17.32
2022-10-23T13:19:22.330Z,17.26
2022-10-23T13:21:49.415Z,17.22
2022-10-23T13:24:20.909Z,17.14
2022-10-23T13:26:47.759Z,17.20
2022-10-23T13:29:20.316Z,17.18
2022-10-23T13:31:47.405Z,17.16
2022-10-23T13:34:25.289Z,17.24
2022-10-23T13:36:55.338Z,17.22
2022-10-23T13:39:27.206Z,17.06
2022-10-23T13:41:53.888Z,17.07
2022-10-23T13:44:22.941Z,17.16
2022-10-23T13:46:51.966Z,17.09
2022-10-23T13:49:19.381Z,17.07
2022-10-23T13:51:51.852Z,17.01
2022-10-23T13:54:24.534Z,16.98
2022-10-23T13:56:51.743Z,17.03
2022-10-23T13:59:18.524Z,16.98
2022-10-23T14:01:46.985Z,16.99
2022-10-23T14:04:14.546Z,17.01
2022-10-23T14:06:42.070Z,16.98
2022-10-23T14:09:12.366Z,16.97
2022-10-23T14:11:39.068Z,17.05
2022-10-23T14:14:05.702Z,17.01
2022-10-23T14:16:32.193Z,17.03
2022-10-23T14:18:58.695Z,16.98
2022-10-23T14:21:25.660Z,16.99
2022-10-23T14:23:53.769Z,17.01
2022-10-23T14:26:24.378Z,17.03
2022-10-23T14:28:55.357Z,17.00
2022-10-23T14:31:21.980Z,16.98
2022-10-23T14:33:53.899Z,17.02
2022-10-23T14:36:20.536Z,16.95
2022-10-23T14:38:47.126Z,16.95
2022-10-23T14:41:16.395Z,17.00
2022-10-23T14:43:43.094Z,16.89
2022-10-23T14:46:22.042Z,16.82
2022-10-23T14:48:51.056Z,16.88
2022-10-23T14:51:28.633Z,16.86
2022-10-23T14:54:01.710Z,16.80
2022-10-23T14:56:29.930Z,16.68
2022-10-23T15:02:03.328Z,16.50
2022-10-23T15:04:29.716Z,16.42
2022-10-23T15:06:56.248Z,16.40
2022-10-23T15:09:22.725Z,16.38
2022-10-23T15:11:50.503Z,16.36
2022-10-23T15:14:16.908Z,16.37
2022-10-23T15:16:43.507Z,16.35
2022-10-23T15:19:15.118Z,16.40
2022-10-23T15:21:44.942Z,16.35
2022-10-23T15:24:11.467Z,16.28
2022-10-23T15:26:38.479Z,16.26
2022-10-23T15:29:05.476Z,16.25
2022-10-23T15:31:37.714Z,16.22
2022-10-23T15:34:05.663Z,16.17
2022-10-23T15:36:32.612Z,16.13
2022-10-23T15:39:00.626Z,16.08
2022-10-23T15:41:32.185Z,16.10
2022-10-23T15:44:00.550Z,16.06
2022-10-23T15:46:26.979Z,16.04
2022-10-23T15:48:53.959Z,16.18
2022-10-23T15:51:20.869Z,16.11
2022-10-23T15:53:47.544Z,16.17
2022-10-23T15:56:14.285Z,16.16
2022-10-23T15:58:40.889Z,16.12
2022-10-23T16:01:07.761Z,16.18
2022-10-23T16:03:36.182Z,16.14
2022-10-23T16:06:12.404Z,16.20
2022-10-23T16:08:39.727Z,16.08
2022-10-23T16:11:15.940Z,16.08
2022-10-23T16:13:43.559Z,16.04
2022-10-23T16:16:10.249Z,16.10
2022-10-23T16:18:36.912Z,16.05
2022-10-23T16:21:03.656Z,16.01
2022-10-23T16:23:30.156Z,16.01
2022-10-23T16:25:56.681Z,15.94
2022-10-23T16:28:23.180Z,15.94
2022-10-23T16:30:49.678Z,15.95
2022-10-23T16:33:16.092Z,15.94
2022-10-23T16:35:42.641Z,15.83
2022-10-23T16:38:09.083Z,15.83
2022-10-23T16:40:35.475Z,15.85
2022-10-23T16:43:01.981Z,15.79
2022-10-23T16:45:28.436Z,15.67
2022-10-23T16:47:55.099Z,15.61
2022-10-23T16:50:21.768Z,15.54
2022-10-23T16:52:49.910Z,15.45
2022-10-23T16:55:18.627Z,15.45
2022-10-23T16:57:45.113Z,15.36
2022-10-23T17:00:11.799Z,15.32
2022-10-23T17:02:38.401Z,15.33
2022-10-23T17:05:05.331Z,15.38
2022-10-23T17:07:33.087Z,15.31
2022-10-23T17:09:59.524Z,15.40
2022-10-23T17:12:26.266Z,15.26
2022-10-23T17:14:52.688Z,15.24
2022-10-23T17:17:19.290Z,15.39
2022-10-23T17:19:46.652Z,15.25
2022-10-23T17:22:13.952Z,15.08
2022-10-23T17:24:43.528Z,15.08
2022-10-23T17:27:11.786Z,15.02
2022-10-23T17:29:39.467Z,14.92
2022-10-23T17:32:06.068Z,14.89
2022-10-23T17:34:34.052Z,15.06
2022-10-23T17:37:00.840Z,14.95
2022-10-23T17:39:29.198Z,14.85
2022-10-23T17:41:56.690Z,14.75
2022-10-23T17:44:24.226Z,14.75
2022-10-23T17:46:53.529Z,14.72
2022-10-23T17:49:21.181Z,14.78
2022-10-23T17:51:54.621Z,14.73
2022-10-23T17:54:22.439Z,14.68
2022-10-23T17:56:49.703Z,14.67
2022-10-23T17:59:19.549Z,14.66
2022-10-23T18:01:48.397Z,14.66
2022-10-23T18:04:18.107Z,14.64
2022-10-23T18:06:49.577Z,14.62
2022-10-23T18:09:16.590Z,14.71
2022-10-23T18:11:48.111Z,14.63
2022-10-23T18:14:17.281Z,14.60
2022-10-23T18:16:45.981Z,14.59
2022-10-23T18:19:13.889Z,14.54
2022-10-23T18:21:40.627Z,14.56
2022-10-23T18:24:07.785Z,14.43
2022-10-23T18:26:35.368Z,14.45
2022-10-23T18:29:07.040Z,14.43
2022-10-23T18:31:35.409Z,14.49
2022-10-23T18:34:04.914Z,14.51
2022-10-23T18:36:35.387Z,14.50
2022-10-23T18:39:02.911Z,14.44
2022-10-23T18:41:38.238Z,14.35
2022-10-23T18:44:04.805Z,14.35
2022-10-23T18:46:31.891Z,14.28
2022-10-23T18:48:58.583Z,14.22
2022-10-23T18:51:28.950Z,14.28
2022-10-23T18:53:56.231Z,14.32
2022-10-23T18:56:26.010Z,14.39
2022-10-23T18:58:57.975Z,14.47
2022-10-23T19:01:26.987Z,14.38
2022-10-23T19:06:22.069Z,14.40
2022-10-23T19:08:51.248Z,14.34
2022-10-23T19:11:19.573Z,14.34
2022-10-23T19:13:46.186Z,14.39
2022-10-23T19:16:30.811Z,14.42
2022-10-23T19:19:01.405Z,14.49
2022-10-23T19:21:33.255Z,14.48
2022-10-23T19:24:07.232Z,14.45
2022-10-23T19:26:35.745Z,14.51
2022-10-23T19:29:02.985Z,14.53
2022-10-23T19:31:29.418Z,14.59
2022-10-23T19:33:55.931Z,14.61
2022-10-23T19:36:23.549Z,14.65
2022-10-23T19:38:50.673Z,14.59
2022-10-23T19:41:18.307Z,14.67
2022-10-23T19:43:45.333Z,14.67
2022-10-23T19:46:12.300Z,14.65
2022-10-23T19:48:42.405Z,14.72
2022-10-23T19:51:09.579Z,14.71
2022-10-23T19:53:36.439Z,14.64
2022-10-23T19:56:08.139Z,14.59
2022-10-23T19:58:34.709Z,14.53
2022-10-23T20:01:15.424Z,14.48
2022-10-23T20:03:44.515Z,14.48
2022-10-23T20:06:20.420Z,14.52
2022-10-23T20:08:47.778Z,14.54
2022-10-23T20:11:27.983Z,14.48
2022-10-23T20:13:55.551Z,14.48
2022-10-23T20:16:29.050Z,14.45
2022-10-23T20:18:55.728Z,14.51
2022-10-23T20:21:24.360Z,14.56
2022-10-23T20:23:51.135Z,14.53
2022-10-23T20:26:21.142Z,14.60
2022-10-23T20:28:51.079Z,14.62
2022-10-23T20:31:19.115Z,14.66
2022-10-23T20:33:45.927Z,14.60
2022-10-23T20:36:33.440Z,14.59
2022-10-23T20:39:04.219Z,14.55
2022-10-23T20:41:33.179Z,14.58
2022-10-23T20:44:00.529Z,14.62
2022-10-23T20:46:27.062Z,14.66
2022-10-23T20:48:53.756Z,14.60
2022-10-23T20:51:23.078Z,14.54
2022-10-23T20:53:50.783Z,14.54
2022-10-23T20:56:23.462Z,14.56
2022-10-23T20:58:50.536Z,14.56
2022-10-23T21:01:17.997Z,14.56
2022-10-23T21:03:49.708Z,14.48
2022-10-23T21:06:18.317Z,14.44
2022-10-23T21:08:45.354Z,14.56
2022-10-23T21:11:17.322Z,14.51
2022-10-23T21:13:45.231Z,14.42
2022-10-23T21:16:24.841Z,14.45
2022-10-23T21:18:56.379Z,14.49
2022-10-23T21:21:24.328Z,14.55
2022-10-23T21:23:53.083Z,14.58
2022-10-23T21:26:22.589Z,14.59
2022-10-23T21:28:56.283Z,14.66
2022-10-23T21:31:33.539Z,14.72
2022-10-23T21:34:00.231Z,14.73
2022-10-23T21:36:27.458Z,14.75
2022-10-23T21:38:56.442Z,14.78
2022-10-23T21:41:31.689Z,14.84
2022-10-23T21:44:01.848Z,14.82
2022-10-23T21:46:30.172Z,14.87
2022-10-23T21:48:58.614Z,14.84
2022-10-23T21:51:26.696Z,14.80
2022-10-23T21:53:54.110Z,14.75
2022-10-23T21:56:28.792Z,14.65
2022-10-23T21:58:56.700Z,14.61
2022-10-23T22:01:23.303Z,14.61
2022-10-23T22:03:50.066Z,14.62
2022-10-23T22:06:22.354Z,14.63
2022-10-23T22:08:49.405Z,14.54
2022-10-23T22:11:16.500Z,14.53
2022-10-23T22:13:44.315Z,14.54
2022-10-23T22:16:12.119Z,14.54
2022-10-23T22:18:38.544Z,14.53
2022-10-23T22:21:15.163Z,14.55
2022-10-23T22:23:42.326Z,14.51
2022-10-23T22:26:36.033Z,14.49
2022-10-23T22:29:05.665Z,14.43
2022-10-23T22:31:33.417Z,14.39
2022-10-23T22:34:13.021Z,14.38
2022-10-23T22:36:47.838Z,14.47
2022-10-23T22:39:14.713Z,14.49
2022-10-23T22:41:43.223Z,14.42
2022-10-23T22:44:11.655Z,14.44
2022-10-23T22:46:38.496Z,14.40
2022-10-23T22:51:32.454Z,14.53
2022-10-23T22:53:59.540Z,14.47
2022-10-23T22:56:28.534Z,14.40
2022-10-23T22:58:56.370Z,14.46
2022-10-23T23:01:26.717Z,14.40
2022-10-23T23:03:53.730Z,14.37
2022-10-23T23:06:21.949Z,14.37
2022-10-23T23:08:49.778Z,14.34
2022-10-23T23:11:18.129Z,14.30
2022-10-23T23:13:45.390Z,14.30
2022-10-23T23:16:21.968Z,14.35
2022-10-23T23:18:49.257Z,14.37
2022-10-23T23:21:16.809Z,14.31
2022-10-23T23:23:43.594Z,14.32
2022-10-23T23:26:10.758Z,14.30
2022-10-23T23:28:37.601Z,14.30
2022-10-23T23:31:07.572Z,14.26
2022-10-23T23:33:35.255Z,14.20
2022-10-23T23:36:07.256Z,14.18
2022-10-23T23:38:34.632Z,14.15
2022-10-23T23:41:01.282Z,14.11
2022-10-23T23:43:27.802Z,14.09
2022-10-23T23:45:54.336Z,14.03
2022-10-23T23:48:20.775Z,14.06
2022-10-23T23:50:47.425Z,14.02
2022-10-23T23:53:13.958Z,14.00
2022-10-23T23:55:40.570Z,14.12
2022-10-23T23:58:07.106Z,14.18
